sensor_id;sensor_type;location;lat;lon;timestamp;temperature;humidity
11532;DHT22;5822;51.000;5.874;2023-04-15T00:00:29;10.40;99.90
11532;DHT22;5822;51.000;5.874;2023-04-15T00:02:55;10.40;99.90
11532;DHT22;5822;51.000;5.874;2023-04-15T00:05:21;10.50;99.90
11532;DHT22;5822;51.000;5.874;2023-04-15T00:07:46;10.50;99.90
11532;DHT22;5822;51.000;5.874;2023-04-15T00:10:12;10.60;99.90
11532;DHT22;5822;51.000;5.874;2023-04-15T00:12:39;10.80;99.90
11532;DHT22;5822;51.000;5.874;2023-04-15T00:15:07;10.80;99.90
11532;DHT22;5822;51.000;5.874;2023-04-15T00:17:33;10.70;99.90
11532;DHT22;5822;51.000;5.874;2023-04-15T00:19:59;10.60;99.90
11532;DHT22;5822;51.000;5.874;2023-04-15T00:22:26;10.50;99.90
11532;DHT22;5822;51.000;5.874;2023-04-15T00:24:52;10.50;99.90
11532;DHT22;5822;51.000;5.874;2023-04-15T00:27:18;10.50;99.90
11532;DHT22;5822;51.000;5.874;2023-04-15T00:29:44;10.60;99.90
11532;DHT22;5822;51.000;5.874;2023-04-15T00:32:10;10.60;99.90
11532;DHT22;5822;51.000;5.874;2023-04-15T00:34:36;10.60;99.90
11532;DHT22;5822;51.000;5.874;2023-04-15T00:37:01;10.70;99.90
11532;DHT22;5822;51.000;5.874;2023-04-15T00:39:27;10.60;99.90
11532;DHT22;5822;51.000;5.874;2023-04-15T00:41:54;10.60;99.90
11532;DHT22;5822;51.000;5.874;2023-04-15T00:44:20;10.70;99.90
11532;DHT22;5822;51.000;5.874;2023-04-15T00:46:46;10.70;99.90
11532;DHT22;5822;51.000;5.874;2023-04-15T00:49:13;10.60;99.90
11532;DHT22;5822;51.000;5.874;2023-04-15T00:51:38;10.70;99.90
11532;DHT22;5822;51.000;5.874;2023-04-15T00:54:05;10.70;99.90
11532;DHT22;5822;51.000;5.874;2023-04-15T00:56:34;10.70;99.90
11532;DHT22;5822;51.000;5.874;2023-04-15T00:59:00;10.70;99.90
11532;DHT22;5822;51.000;5.874;2023-04-15T01:01:26;10.80;99.90
11532;DHT22;5822;51.000;5.874;2023-04-15T01:03:55;10.80;99.90
11532;DHT22;5822;51.000;5.874;2023-04-15T01:06:21;10.90;99.90
11532;DHT22;5822;51.000;5.874;2023-04-15T01:08:46;10.80;99.90
11532;DHT22;5822;51.000;5.874;2023-04-15T01:11:12;10.70;99.90
11532;DHT22;5822;51.000;5.874;2023-04-15T01:13:39;10.70;99.90
11532;DHT22;5822;51.000;5.874;2023-04-15T01:16:05;10.80;99.90
11532;DHT22;5822;51.000;5.874;2023-04-15T01:18:32;10.80;99.90
11532;DHT22;5822;51.000;5.874;2023-04-15T01:21:00;10.90;99.90
11532;DHT22;5822;51.000;5.874;2023-04-15T01:23:26;10.90;99.90
11532;DHT22;5822;51.000;5.874;2023-04-15T01:25:53;10.90;99.90
11532;DHT22;5822;51.000;5.874;2023-04-15T01:28:18;10.80;99.90
11532;DHT22;5822;51.000;5.874;2023-04-15T01:30:44;10.80;99.90
11532;DHT22;5822;51.000;5.874;2023-04-15T01:33:10;10.80;99.90
11532;DHT22;5822;51.000;5.874;2023-04-15T01:35:36;10.80;99.90
11532;DHT22;5822;51.000;5.874;2023-04-15T01:38:05;10.60;99.90
11532;DHT22;5822;51.000;5.874;2023-04-15T01:40:32;10.50;99.90
11532;DHT22;5822;51.000;5.874;2023-04-15T01:42:58;10.40;99.90
11532;DHT22;5822;51.000;5.874;2023-04-15T01:45:24;10.40;99.90
11532;DHT22;5822;51.000;5.874;2023-04-15T01:47:50;10.40;99.90
11532;DHT22;5822;51.000;5.874;2023-04-15T01:50:15;10.50;99.90
11532;DHT22;5822;51.000;5.874;2023-04-15T01:52:41;10.60;99.90
11532;DHT22;5822;51.000;5.874;2023-04-15T01:55:07;10.50;99.90
11532;DHT22;5822;51.000;5.874;2023-04-15T01:57:33;10.40;99.90
11532;DHT22;5822;51.000;5.874;2023-04-15T01:59:59;10.40;99.90
11532;DHT22;5822;51.000;5.874;2023-04-15T02:02:25;10.50;99.90
11532;DHT22;5822;51.000;5.874;2023-04-15T02:04:50;10.50;99.90
11532;DHT22;5822;51.000;5.874;2023-04-15T02:07:17;10.40;99.90
11532;DHT22;5822;51.000;5.874;2023-04-15T02:09:44;10.40;99.90
11532;DHT22;5822;51.000;5.874;2023-04-15T02:12:10;10.40;99.90
11532;DHT22;5822;51.000;5.874;2023-04-15T02:14:36;10.40;99.90
11532;DHT22;5822;51.000;5.874;2023-04-15T02:17:01;10.50;99.90
11532;DHT22;5822;51.000;5.874;2023-04-15T02:19:32;10.50;99.90
11532;DHT22;5822;51.000;5.874;2023-04-15T02:21:58;10.50;99.90
11532;DHT22;5822;51.000;5.874;2023-04-15T02:24:26;10.50;99.90
11532;DHT22;5822;51.000;5.874;2023-04-15T02:26:52;10.50;99.90
11532;DHT22;5822;51.000;5.874;2023-04-15T02:29:17;10.50;99.90
11532;DHT22;5822;51.000;5.874;2023-04-15T02:31:43;10.50;99.90
11532;DHT22;5822;51.000;5.874;2023-04-15T02:34:09;10.50;99.90
11532;DHT22;5822;51.000;5.874;2023-04-15T02:36:35;10.50;99.90
11532;DHT22;5822;51.000;5.874;2023-04-15T02:39:01;10.50;99.90
11532;DHT22;5822;51.000;5.874;2023-04-15T02:41:28;10.50;99.90
11532;DHT22;5822;51.000;5.874;2023-04-15T02:43:55;10.50;99.90
11532;DHT22;5822;51.000;5.874;2023-04-15T02:46:21;10.40;99.90
11532;DHT22;5822;51.000;5.874;2023-04-15T02:48:48;10.30;99.90
11532;DHT22;5822;51.000;5.874;2023-04-15T02:51:15;10.30;99.90
11532;DHT22;5822;51.000;5.874;2023-04-15T02:53:41;10.30;99.90
11532;DHT22;5822;51.000;5.874;2023-04-15T02:56:07;10.20;99.90
11532;DHT22;5822;51.000;5.874;2023-04-15T02:58:34;10.10;99.90
11532;DHT22;5822;51.000;5.874;2023-04-15T03:01:00;10.10;99.90
11532;DHT22;5822;51.000;5.874;2023-04-15T03:03:26;10.10;99.90
11532;DHT22;5822;51.000;5.874;2023-04-15T03:05:52;10.10;99.90
11532;DHT22;5822;51.000;5.874;2023-04-15T03:08:18;10.00;99.90
11532;DHT22;5822;51.000;5.874;2023-04-15T03:10:45;10.00;99.90
11532;DHT22;5822;51.000;5.874;2023-04-15T03:13:11;10.00;99.90
11532;DHT22;5822;51.000;5.874;2023-04-15T03:15:37;10.10;99.90
11532;DHT22;5822;51.000;5.874;2023-04-15T03:18:03;10.10;99.90
11532;DHT22;5822;51.000;5.874;2023-04-15T03:20:28;10.00;99.90
11532;DHT22;5822;51.000;5.874;2023-04-15T03:22:54;10.10;99.90
11532;DHT22;5822;51.000;5.874;2023-04-15T03:25:20;10.10;99.90
11532;DHT22;5822;51.000;5.874;2023-04-15T03:27:46;10.10;99.90
11532;DHT22;5822;51.000;5.874;2023-04-15T03:30:12;10.10;99.90
11532;DHT22;5822;51.000;5.874;2023-04-15T03:32:38;10.10;99.90
11532;DHT22;5822;51.000;5.874;2023-04-15T03:35:04;10.10;99.90
11532;DHT22;5822;51.000;5.874;2023-04-15T03:37:29;10.10;99.90
11532;DHT22;5822;51.000;5.874;2023-04-15T03:39:55;10.10;99.90
11532;DHT22;5822;51.000;5.874;2023-04-15T03:42:21;10.10;99.90
11532;DHT22;5822;51.000;5.874;2023-04-15T03:44:46;10.10;99.90
11532;DHT22;5822;51.000;5.874;2023-04-15T03:47:12;10.00;99.90
11532;DHT22;5822;51.000;5.874;2023-04-15T03:49:37;10.00;99.90
11532;DHT22;5822;51.000;5.874;2023-04-15T03:52:03;10.10;99.90
11532;DHT22;5822;51.000;5.874;2023-04-15T03:54:29;10.00;99.90
11532;DHT22;5822;51.000;5.874;2023-04-15T03:56:54;10.00;99.90
11532;DHT22;5822;51.000;5.874;2023-04-15T03:59:21;10.00;99.90
11532;DHT22;5822;51.000;5.874;2023-04-15T04:01:46;10.00;99.90
11532;DHT22;5822;51.000;5.874;2023-04-15T04:04:12;10.00;99.90
11532;DHT22;5822;51.000;5.874;2023-04-15T04:06:38;10.00;99.90
11532;DHT22;5822;51.000;5.874;2023-04-15T04:09:04;10.00;99.90
11532;DHT22;5822;51.000;5.874;2023-04-15T04:11:29;10.00;99.90
11532;DHT22;5822;51.000;5.874;2023-04-15T04:13:56;10.00;99.90
11532;DHT22;5822;51.000;5.874;2023-04-15T04:16:21;10.00;99.90
11532;DHT22;5822;51.000;5.874;2023-04-15T04:18:47;10.00;99.90
11532;DHT22;5822;51.000;5.874;2023-04-15T04:21:13;10.00;99.90
11532;DHT22;5822;51.000;5.874;2023-04-15T04:23:38;10.00;99.90
11532;DHT22;5822;51.000;5.874;2023-04-15T04:26:04;9.90;99.90
11532;DHT22;5822;51.000;5.874;2023-04-15T04:28:30;9.90;99.90
11532;DHT22;5822;51.000;5.874;2023-04-15T04:30:56;9.90;99.90
11532;DHT22;5822;51.000;5.874;2023-04-15T04:33:21;9.90;99.90
11532;DHT22;5822;51.000;5.874;2023-04-15T04:35:47;9.90;99.90
11532;DHT22;5822;51.000;5.874;2023-04-15T04:38:13;9.90;99.90
11532;DHT22;5822;51.000;5.874;2023-04-15T04:40:38;9.90;99.90
11532;DHT22;5822;51.000;5.874;2023-04-15T04:43:04;9.90;99.90
11532;DHT22;5822;51.000;5.874;2023-04-15T04:45:30;9.80;99.90
11532;DHT22;5822;51.000;5.874;2023-04-15T04:47:55;9.80;99.90
11532;DHT22;5822;51.000;5.874;2023-04-15T04:50:21;9.70;99.90
11532;DHT22;5822;51.000;5.874;2023-04-15T04:52:46;9.70;99.90
11532;DHT22;5822;51.000;5.874;2023-04-15T04:55:12;9.70;99.90
11532;DHT22;5822;51.000;5.874;2023-04-15T04:57:38;9.70;99.90
11532;DHT22;5822;51.000;5.874;2023-04-15T05:00:07;9.70;99.90
11532;DHT22;5822;51.000;5.874;2023-04-15T05:02:33;9.60;99.90
11532;DHT22;5822;51.000;5.874;2023-04-15T05:04:59;9.60;99.90
11532;DHT22;5822;51.000;5.874;2023-04-15T05:07:25;9.60;99.90
11532;DHT22;5822;51.000;5.874;2023-04-15T05:09:51;9.60;99.90
11532;DHT22;5822;51.000;5.874;2023-04-15T05:12:17;9.60;99.90
11532;DHT22;5822;51.000;5.874;2023-04-15T05:14:43;9.60;99.90
11532;DHT22;5822;51.000;5.874;2023-04-15T05:17:09;9.60;99.90
11532;DHT22;5822;51.000;5.874;2023-04-15T05:19:35;9.60;99.90
11532;DHT22;5822;51.000;5.874;2023-04-15T05:22:01;9.60;99.90
11532;DHT22;5822;51.000;5.874;2023-04-15T05:24:26;9.60;99.90
11532;DHT22;5822;51.000;5.874;2023-04-15T05:26:52;9.60;99.90
11532;DHT22;5822;51.000;5.874;2023-04-15T05:29:18;9.60;99.90
11532;DHT22;5822;51.000;5.874;2023-04-15T05:31:43;9.70;99.90
11532;DHT22;5822;51.000;5.874;2023-04-15T05:34:09;9.70;99.90
11532;DHT22;5822;51.000;5.874;2023-04-15T05:36:36;9.60;99.90
11532;DHT22;5822;51.000;5.874;2023-04-15T05:39:02;9.60;99.90
11532;DHT22;5822;51.000;5.874;2023-04-15T05:41:28;9.70;99.90
11532;DHT22;5822;51.000;5.874;2023-04-15T05:43:54;9.70;99.90
11532;DHT22;5822;51.000;5.874;2023-04-15T05:46:20;9.70;99.90
11532;DHT22;5822;51.000;5.874;2023-04-15T05:48:45;9.60;99.90
11532;DHT22;5822;51.000;5.874;2023-04-15T05:51:11;9.70;99.90
11532;DHT22;5822;51.000;5.874;2023-04-15T05:53:37;9.70;99.90
11532;DHT22;5822;51.000;5.874;2023-04-15T05:56:03;9.70;99.90
11532;DHT22;5822;51.000;5.874;2023-04-15T05:58:29;9.70;99.90
11532;DHT22;5822;51.000;5.874;2023-04-15T06:00:54;9.80;99.90
11532;DHT22;5822;51.000;5.874;2023-04-15T06:03:21;9.80;99.90
11532;DHT22;5822;51.000;5.874;2023-04-15T06:05:47;9.70;99.90
11532;DHT22;5822;51.000;5.874;2023-04-15T06:08:12;9.60;99.90
11532;DHT22;5822;51.000;5.874;2023-04-15T06:10:38;9.70;99.90
11532;DHT22;5822;51.000;5.874;2023-04-15T06:13:04;9.70;99.90
11532;DHT22;5822;51.000;5.874;2023-04-15T06:15:30;9.70;99.90
11532;DHT22;5822;51.000;5.874;2023-04-15T06:17:56;9.70;99.90
11532;DHT22;5822;51.000;5.874;2023-04-15T06:20:21;9.70;99.90
11532;DHT22;5822;51.000;5.874;2023-04-15T06:22:48;9.70;99.90
11532;DHT22;5822;51.000;5.874;2023-04-15T06:25:14;9.70;99.90
11532;DHT22;5822;51.000;5.874;2023-04-15T06:27:40;9.70;99.90
11532;DHT22;5822;51.000;5.874;2023-04-15T06:30:06;9.70;99.90
11532;DHT22;5822;51.000;5.874;2023-04-15T06:32:32;9.70;99.90
11532;DHT22;5822;51.000;5.874;2023-04-15T06:34:58;9.70;99.90
11532;DHT22;5822;51.000;5.874;2023-04-15T06:37:23;9.70;99.90
11532;DHT22;5822;51.000;5.874;2023-04-15T06:39:49;9.70;99.90
11532;DHT22;5822;51.000;5.874;2023-04-15T06:42:14;9.70;99.90
11532;DHT22;5822;51.000;5.874;2023-04-15T06:44:41;9.70;99.90
11532;DHT22;5822;51.000;5.874;2023-04-15T06:47:06;9.70;99.90
11532;DHT22;5822;51.000;5.874;2023-04-15T06:49:33;9.80;99.90
11532;DHT22;5822;51.000;5.874;2023-04-15T06:51:59;9.80;99.90
11532;DHT22;5822;51.000;5.874;2023-04-15T06:54:25;9.80;99.90
11532;DHT22;5822;51.000;5.874;2023-04-15T06:56:51;9.90;99.90
11532;DHT22;5822;51.000;5.874;2023-04-15T06:59:17;9.90;99.90
11532;DHT22;5822;51.000;5.874;2023-04-15T07:01:42;9.90;99.90
11532;DHT22;5822;51.000;5.874;2023-04-15T07:04:08;9.90;99.90
11532;DHT22;5822;51.000;5.874;2023-04-15T07:06:33;10.00;99.90
11532;DHT22;5822;51.000;5.874;2023-04-15T07:09:00;10.00;99.90
11532;DHT22;5822;51.000;5.874;2023-04-15T07:11:26;10.00;99.90
11532;DHT22;5822;51.000;5.874;2023-04-15T07:13:52;10.10;99.90
11532;DHT22;5822;51.000;5.874;2023-04-15T07:16:17;10.10;99.90
11532;DHT22;5822;51.000;5.874;2023-04-15T07:18:43;10.10;99.90
11532;DHT22;5822;51.000;5.874;2023-04-15T07:21:09;10.20;99.90
11532;DHT22;5822;51.000;5.874;2023-04-15T07:23:35;10.20;99.90
11532;DHT22;5822;51.000;5.874;2023-04-15T07:26:00;10.20;99.90
11532;DHT22;5822;51.000;5.874;2023-04-15T07:28:26;10.20;99.90
11532;DHT22;5822;51.000;5.874;2023-04-15T07:30:52;10.30;99.90
11532;DHT22;5822;51.000;5.874;2023-04-15T07:33:18;10.40;99.90
11532;DHT22;5822;51.000;5.874;2023-04-15T07:35:43;10.40;99.90
11532;DHT22;5822;51.000;5.874;2023-04-15T07:38:09;10.50;99.90
11532;DHT22;5822;51.000;5.874;2023-04-15T07:40:37;10.50;99.90
11532;DHT22;5822;51.000;5.874;2023-04-15T07:43:03;10.50;99.90
11532;DHT22;5822;51.000;5.874;2023-04-15T07:45:30;10.50;99.90
11532;DHT22;5822;51.000;5.874;2023-04-15T07:47:55;10.50;99.90
11532;DHT22;5822;51.000;5.874;2023-04-15T07:50:21;10.60;99.90
11532;DHT22;5822;51.000;5.874;2023-04-15T07:52:48;10.70;99.90
11532;DHT22;5822;51.000;5.874;2023-04-15T07:55:14;10.70;99.90
11532;DHT22;5822;51.000;5.874;2023-04-15T07:57:43;10.80;99.90
11532;DHT22;5822;51.000;5.874;2023-04-15T08:00:09;10.80;99.90
11532;DHT22;5822;51.000;5.874;2023-04-15T08:02:35;10.90;99.90
11532;DHT22;5822;51.000;5.874;2023-04-15T08:05:02;10.90;99.90
11532;DHT22;5822;51.000;5.874;2023-04-15T08:07:28;11.00;99.90
11532;DHT22;5822;51.000;5.874;2023-04-15T08:09:54;11.10;99.90
11532;DHT22;5822;51.000;5.874;2023-04-15T08:12:21;11.20;99.90
11532;DHT22;5822;51.000;5.874;2023-04-15T08:14:46;11.20;99.90
11532;DHT22;5822;51.000;5.874;2023-04-15T08:17:12;11.30;99.90
11532;DHT22;5822;51.000;5.874;2023-04-15T08:19:38;11.30;99.90
11532;DHT22;5822;51.000;5.874;2023-04-15T08:22:04;11.40;99.90
11532;DHT22;5822;51.000;5.874;2023-04-15T08:24:30;11.40;99.90
11532;DHT22;5822;51.000;5.874;2023-04-15T08:26:56;11.50;99.90
11532;DHT22;5822;51.000;5.874;2023-04-15T08:29:22;11.60;99.90
11532;DHT22;5822;51.000;5.874;2023-04-15T08:31:47;11.60;99.90
11532;DHT22;5822;51.000;5.874;2023-04-15T08:34:13;11.70;99.90
11532;DHT22;5822;51.000;5.874;2023-04-15T08:36:40;11.70;99.90
11532;DHT22;5822;51.000;5.874;2023-04-15T08:39:06;11.80;99.90
11532;DHT22;5822;51.000;5.874;2023-04-15T08:41:40;11.80;99.90
11532;DHT22;5822;51.000;5.874;2023-04-15T08:44:10;11.90;99.90
11532;DHT22;5822;51.000;5.874;2023-04-15T08:46:35;11.90;99.90
11532;DHT22;5822;51.000;5.874;2023-04-15T08:49:04;11.90;99.90
11532;DHT22;5822;51.000;5.874;2023-04-15T08:51:34;12.00;99.90
11532;DHT22;5822;51.000;5.874;2023-04-15T08:54:01;12.00;99.90
11532;DHT22;5822;51.000;5.874;2023-04-15T08:56:27;12.00;99.90
11532;DHT22;5822;51.000;5.874;2023-04-15T08:58:56;12.10;99.90
11532;DHT22;5822;51.000;5.874;2023-04-15T09:01:22;12.10;99.90
11532;DHT22;5822;51.000;5.874;2023-04-15T09:03:48;12.20;99.90
11532;DHT22;5822;51.000;5.874;2023-04-15T09:06:16;12.10;99.90
11532;DHT22;5822;51.000;5.874;2023-04-15T09:08:42;12.20;99.90
11532;DHT22;5822;51.000;5.874;2023-04-15T09:11:08;12.20;99.90
11532;DHT22;5822;51.000;5.874;2023-04-15T09:13:33;12.20;99.90
11532;DHT22;5822;51.000;5.874;2023-04-15T09:16:02;12.30;99.90
11532;DHT22;5822;51.000;5.874;2023-04-15T09:18:35;12.40;99.90
11532;DHT22;5822;51.000;5.874;2023-04-15T09:21:12;12.40;99.90
11532;DHT22;5822;51.000;5.874;2023-04-15T09:24:00;12.40;99.90
11532;DHT22;5822;51.000;5.874;2023-04-15T09:26:36;12.40;99.90
11532;DHT22;5822;51.000;5.874;2023-04-15T09:29:06;12.50;99.90
11532;DHT22;5822;51.000;5.874;2023-04-15T09:31:32;12.50;99.90
11532;DHT22;5822;51.000;5.874;2023-04-15T09:33:58;12.50;99.90
11532;DHT22;5822;51.000;5.874;2023-04-15T09:36:24;12.50;99.90
11532;DHT22;5822;51.000;5.874;2023-04-15T09:38:59;12.50;99.90
11532;DHT22;5822;51.000;5.874;2023-04-15T09:41:26;12.60;99.90
11532;DHT22;5822;51.000;5.874;2023-04-15T09:43:53;12.60;99.90
11532;DHT22;5822;51.000;5.874;2023-04-15T09:46:19;12.70;99.90
11532;DHT22;5822;51.000;5.874;2023-04-15T09:48:44;12.70;99.90
11532;DHT22;5822;51.000;5.874;2023-04-15T09:51:10;12.70;99.90
11532;DHT22;5822;51.000;5.874;2023-04-15T09:53:36;12.80;99.90
11532;DHT22;5822;51.000;5.874;2023-04-15T09:56:05;12.90;99.90
11532;DHT22;5822;51.000;5.874;2023-04-15T09:58:34;12.90;99.90
11532;DHT22;5822;51.000;5.874;2023-04-15T10:01:02;12.90;99.90
11532;DHT22;5822;51.000;5.874;2023-04-15T10:03:33;12.90;99.90
11532;DHT22;5822;51.000;5.874;2023-04-15T10:06:00;12.90;99.90
11532;DHT22;5822;51.000;5.874;2023-04-15T10:08:30;13.00;99.90
11532;DHT22;5822;51.000;5.874;2023-04-15T10:10:57;13.00;99.90
11532;DHT22;5822;51.000;5.874;2023-04-15T10:13:25;13.00;99.90
11532;DHT22;5822;51.000;5.874;2023-04-15T10:15:58;13.00;99.90
11532;DHT22;5822;51.000;5.874;2023-04-15T10:18:26;13.10;99.90
11532;DHT22;5822;51.000;5.874;2023-04-15T10:20:52;13.00;99.90
11532;DHT22;5822;51.000;5.874;2023-04-15T10:23:19;13.10;99.90
11532;DHT22;5822;51.000;5.874;2023-04-15T10:25:52;13.10;99.90
11532;DHT22;5822;51.000;5.874;2023-04-15T10:28:19;13.10;99.90
11532;DHT22;5822;51.000;5.874;2023-04-15T10:30:45;13.10;99.90
11532;DHT22;5822;51.000;5.874;2023-04-15T10:33:13;13.20;99.90
11532;DHT22;5822;51.000;5.874;2023-04-15T10:35:41;13.10;99.90
11532;DHT22;5822;51.000;5.874;2023-04-15T10:41:17;13.20;99.90
11532;DHT22;5822;51.000;5.874;2023-04-15T10:43:53;13.20;99.90
11532;DHT22;5822;51.000;5.874;2023-04-15T10:49:15;13.20;99.90
11532;DHT22;5822;51.000;5.874;2023-04-15T10:51:42;13.20;99.90
11532;DHT22;5822;51.000;5.874;2023-04-15T10:54:29;13.30;99.90
11532;DHT22;5822;51.000;5.874;2023-04-15T11:02:47;13.30;99.90
11532;DHT22;5822;51.000;5.874;2023-04-15T11:05:17;13.40;99.90
11532;DHT22;5822;51.000;5.874;2023-04-15T11:07:51;13.30;99.90
11532;DHT22;5822;51.000;5.874;2023-04-15T11:12:43;13.40;99.90
11532;DHT22;5822;51.000;5.874;2023-04-15T11:17:58;13.50;99.90
11532;DHT22;5822;51.000;5.874;2023-04-15T11:20:25;13.60;99.90
11532;DHT22;5822;51.000;5.874;2023-04-15T11:22:52;13.60;99.90
11532;DHT22;5822;51.000;5.874;2023-04-15T11:25:29;13.70;99.90
11532;DHT22;5822;51.000;5.874;2023-04-15T11:27:55;13.80;99.90
11532;DHT22;5822;51.000;5.874;2023-04-15T11:30:27;13.80;99.90
11532;DHT22;5822;51.000;5.874;2023-04-15T11:32:58;13.90;99.90
11532;DHT22;5822;51.000;5.874;2023-04-15T11:35:24;13.90;99.90
11532;DHT22;5822;51.000;5.874;2023-04-15T11:37:50;13.90;99.90
11532;DHT22;5822;51.000;5.874;2023-04-15T11:40:19;14.00;99.90
11532;DHT22;5822;51.000;5.874;2023-04-15T11:42:46;14.00;99.90
11532;DHT22;5822;51.000;5.874;2023-04-15T11:45:28;14.10;99.90
11532;DHT22;5822;51.000;5.874;2023-04-15T11:47:53;14.00;99.90
11532;DHT22;5822;51.000;5.874;2023-04-15T11:50:22;14.00;99.90
11532;DHT22;5822;51.000;5.874;2023-04-15T11:52:59;14.10;99.90
11532;DHT22;5822;51.000;5.874;2023-04-15T11:55:26;14.10;99.90
11532;DHT22;5822;51.000;5.874;2023-04-15T11:58:30;14.10;99.90
11532;DHT22;5822;51.000;5.874;2023-04-15T12:00:59;14.10;99.90
11532;DHT22;5822;51.000;5.874;2023-04-15T12:03:31;14.10;99.90
11532;DHT22;5822;51.000;5.874;2023-04-15T12:11:49;14.20;99.90
11532;DHT22;5822;51.000;5.874;2023-04-15T12:14:18;14.20;99.90
11532;DHT22;5822;51.000;5.874;2023-04-15T12:16:49;14.30;99.90
11532;DHT22;5822;51.000;5.874;2023-04-15T12:19:19;14.30;99.90
11532;DHT22;5822;51.000;5.874;2023-04-15T12:21:47;14.30;99.90
11532;DHT22;5822;51.000;5.874;2023-04-15T12:24:13;14.30;99.90
11532;DHT22;5822;51.000;5.874;2023-04-15T12:26:45;14.30;99.90
11532;DHT22;5822;51.000;5.874;2023-04-15T12:29:12;14.30;99.90
11532;DHT22;5822;51.000;5.874;2023-04-15T12:31:52;14.30;99.90
11532;DHT22;5822;51.000;5.874;2023-04-15T12:34:35;14.30;99.90
11532;DHT22;5822;51.000;5.874;2023-04-15T12:37:03;14.20;99.90
11532;DHT22;5822;51.000;5.874;2023-04-15T12:39:34;14.20;99.90
11532;DHT22;5822;51.000;5.874;2023-04-15T12:42:00;14.30;99.90
11532;DHT22;5822;51.000;5.874;2023-04-15T12:44:27;14.40;99.90
11532;DHT22;5822;51.000;5.874;2023-04-15T12:46:53;14.40;99.90
11532;DHT22;5822;51.000;5.874;2023-04-15T12:49:22;14.40;99.90
11532;DHT22;5822;51.000;5.874;2023-04-15T12:51:50;14.40;99.90
11532;DHT22;5822;51.000;5.874;2023-04-15T12:54:16;14.40;99.90
11532;DHT22;5822;51.000;5.874;2023-04-15T12:56:43;14.40;99.90
11532;DHT22;5822;51.000;5.874;2023-04-15T12:59:09;14.40;99.90
11532;DHT22;5822;51.000;5.874;2023-04-15T13:01:34;14.40;99.90
11532;DHT22;5822;51.000;5.874;2023-04-15T13:04:00;14.40;99.90
11532;DHT22;5822;51.000;5.874;2023-04-15T13:06:26;14.50;99.90
11532;DHT22;5822;51.000;5.874;2023-04-15T13:08:53;14.50;99.90
11532;DHT22;5822;51.000;5.874;2023-04-15T13:11:21;14.50;99.90
11532;DHT22;5822;51.000;5.874;2023-04-15T13:13:47;14.50;99.90
11532;DHT22;5822;51.000;5.874;2023-04-15T13:16:12;14.50;99.90
11532;DHT22;5822;51.000;5.874;2023-04-15T13:18:38;14.50;99.90
11532;DHT22;5822;51.000;5.874;2023-04-15T13:21:04;14.50;99.90
11532;DHT22;5822;51.000;5.874;2023-04-15T13:23:32;14.50;99.90
11532;DHT22;5822;51.000;5.874;2023-04-15T13:25:58;14.50;99.90
11532;DHT22;5822;51.000;5.874;2023-04-15T13:28:23;14.60;99.90
11532;DHT22;5822;51.000;5.874;2023-04-15T13:30:49;14.80;99.90
11532;DHT22;5822;51.000;5.874;2023-04-15T13:33:16;14.80;99.90
11532;DHT22;5822;51.000;5.874;2023-04-15T13:35:42;14.80;99.90
11532;DHT22;5822;51.000;5.874;2023-04-15T13:38:08;14.70;99.90
11532;DHT22;5822;51.000;5.874;2023-04-15T13:40:34;14.70;99.90
11532;DHT22;5822;51.000;5.874;2023-04-15T13:42:59;14.70;99.90
11532;DHT22;5822;51.000;5.874;2023-04-15T13:45:26;14.70;99.90
11532;DHT22;5822;51.000;5.874;2023-04-15T13:47:52;14.70;99.90
11532;DHT22;5822;51.000;5.874;2023-04-15T13:50:18;14.80;99.90
11532;DHT22;5822;51.000;5.874;2023-04-15T13:52:43;14.90;99.90
11532;DHT22;5822;51.000;5.874;2023-04-15T13:55:09;15.00;99.90
11532;DHT22;5822;51.000;5.874;2023-04-15T13:57:35;15.10;99.90
11532;DHT22;5822;51.000;5.874;2023-04-15T14:00:01;15.20;99.90
11532;DHT22;5822;51.000;5.874;2023-04-15T14:02:28;15.40;99.90
11532;DHT22;5822;51.000;5.874;2023-04-15T14:04:54;15.50;99.90
11532;DHT22;5822;51.000;5.874;2023-04-15T14:07:20;15.60;99.90
11532;DHT22;5822;51.000;5.874;2023-04-15T14:09:46;15.50;99.90
11532;DHT22;5822;51.000;5.874;2023-04-15T14:12:12;15.60;99.90
11532;DHT22;5822;51.000;5.874;2023-04-15T14:14:39;15.50;99.90
11532;DHT22;5822;51.000;5.874;2023-04-15T14:17:04;15.50;99.90
11532;DHT22;5822;51.000;5.874;2023-04-15T14:19:31;15.50;99.90
11532;DHT22;5822;51.000;5.874;2023-04-15T14:21:57;15.40;99.90
11532;DHT22;5822;51.000;5.874;2023-04-15T14:24:23;15.30;99.90
11532;DHT22;5822;51.000;5.874;2023-04-15T14:26:49;15.30;99.90
11532;DHT22;5822;51.000;5.874;2023-04-15T14:29:15;15.20;99.90
11532;DHT22;5822;51.000;5.874;2023-04-15T14:31:41;15.20;99.90
11532;DHT22;5822;51.000;5.874;2023-04-15T14:34:09;15.20;99.90
11532;DHT22;5822;51.000;5.874;2023-04-15T14:36:35;15.20;99.90
11532;DHT22;5822;51.000;5.874;2023-04-15T14:39:00;15.20;99.90
11532;DHT22;5822;51.000;5.874;2023-04-15T14:41:26;15.10;99.90
11532;DHT22;5822;51.000;5.874;2023-04-15T14:43:52;15.10;99.90
11532;DHT22;5822;51.000;5.874;2023-04-15T14:46:17;15.10;99.90
11532;DHT22;5822;51.000;5.874;2023-04-15T14:48:43;15.10;99.90
11532;DHT22;5822;51.000;5.874;2023-04-15T14:51:09;15.10;99.90
11532;DHT22;5822;51.000;5.874;2023-04-15T14:53:35;15.10;99.90
11532;DHT22;5822;51.000;5.874;2023-04-15T14:56:00;15.10;99.90
11532;DHT22;5822;51.000;5.874;2023-04-15T14:58:26;15.10;99.90
11532;DHT22;5822;51.000;5.874;2023-04-15T15:00:51;15.10;99.90
11532;DHT22;5822;51.000;5.874;2023-04-15T15:03:17;15.20;99.90
11532;DHT22;5822;51.000;5.874;2023-04-15T15:05:46;15.20;99.90
11532;DHT22;5822;51.000;5.874;2023-04-15T15:08:12;15.30;99.90
11532;DHT22;5822;51.000;5.874;2023-04-15T15:10:38;15.30;99.90
11532;DHT22;5822;51.000;5.874;2023-04-15T15:13:08;15.30;99.90
11532;DHT22;5822;51.000;5.874;2023-04-15T15:15:35;15.30;99.90
11532;DHT22;5822;51.000;5.874;2023-04-15T15:18:02;15.30;99.90
11532;DHT22;5822;51.000;5.874;2023-04-15T15:20:28;15.40;99.90
11532;DHT22;5822;51.000;5.874;2023-04-15T15:22:54;15.30;99.90
11532;DHT22;5822;51.000;5.874;2023-04-15T15:25:20;15.30;99.90
11532;DHT22;5822;51.000;5.874;2023-04-15T15:27:46;15.20;99.90
11532;DHT22;5822;51.000;5.874;2023-04-15T15:30:12;15.20;99.90
11532;DHT22;5822;51.000;5.874;2023-04-15T15:32:41;15.20;99.90
11532;DHT22;5822;51.000;5.874;2023-04-15T15:35:07;15.20;99.90
11532;DHT22;5822;51.000;5.874;2023-04-15T15:37:34;15.10;99.90
11532;DHT22;5822;51.000;5.874;2023-04-15T15:40:00;15.10;99.90
11532;DHT22;5822;51.000;5.874;2023-04-15T15:42:26;15.10;99.90
11532;DHT22;5822;51.000;5.874;2023-04-15T15:44:55;15.00;99.90
11532;DHT22;5822;51.000;5.874;2023-04-15T15:47:21;15.00;99.90
11532;DHT22;5822;51.000;5.874;2023-04-15T15:49:47;15.00;99.90
11532;DHT22;5822;51.000;5.874;2023-04-15T15:52:13;15.00;99.90
11532;DHT22;5822;51.000;5.874;2023-04-15T15:54:39;15.00;99.90
11532;DHT22;5822;51.000;5.874;2023-04-15T15:57:05;14.90;99.90
11532;DHT22;5822;51.000;5.874;2023-04-15T15:59:31;14.90;99.90
11532;DHT22;5822;51.000;5.874;2023-04-15T16:01:58;14.80;99.90
11532;DHT22;5822;51.000;5.874;2023-04-15T16:04:23;14.80;99.90
11532;DHT22;5822;51.000;5.874;2023-04-15T16:06:49;14.80;99.90
11532;DHT22;5822;51.000;5.874;2023-04-15T16:09:15;14.80;99.90